createdAt,value
2019-01-16T00:00:29.213Z,42.97
2019-01-16T00:03:14.364Z,39.13
2019-01-16T00:06:00.172Z,34.93
2019-01-16T00:08:45.965Z,33.50
2019-01-16T00:11:31.920Z,40.67
2019-01-16T00:14:17.648Z,28.43
2019-01-16T00:17:10.341Z,29.23
2019-01-16T00:20:03.261Z,29.80
2019-01-16T00:22:48.790Z,31.67
2019-01-16T00:25:48.106Z,31.37
2019-01-16T00:28:37.774Z,27.93
2019-01-16T00:31:21.974Z,32.47
2019-01-16T00:34:09.121Z,34.07
2019-01-16T00:37:05.316Z,30.33
2019-01-16T00:39:50.874Z,32.80
2019-01-16T00:42:44.633Z,34.43
2019-01-16T00:45:22.608Z,30.43
2019-01-16T00:48:15.629Z,32.93
2019-01-16T00:50:53.537Z,31.47
2019-01-16T00:53:46.805Z,37.00
2019-01-16T00:56:32.513Z,34.43
2019-01-16T00:59:20.965Z,32.73
2019-01-16T01:02:06.547Z,28.43
2019-01-16T01:04:53.967Z,38.67
2019-01-16T01:07:38.582Z,31.23
2019-01-16T01:10:28.677Z,30.90
2019-01-16T01:13:24.435Z,29.60
2019-01-16T01:16:08.984Z,26.73
2019-01-16T01:18:56.113Z,28.63
2019-01-16T01:21:55.194Z,25.67
2019-01-16T01:24:40.977Z,27.67
2019-01-16T01:27:46.277Z,25.03
2019-01-16T01:30:30.973Z,26.43
2019-01-16T01:33:27.396Z,28.70
2019-01-16T01:36:12.865Z,21.37
2019-01-16T01:38:58.729Z,27.73
2019-01-16T01:41:48.753Z,16.63
2019-01-16T01:44:41.588Z,11.90
2019-01-16T01:47:27.349Z,15.47
2019-01-16T01:50:03.166Z,16.03
2019-01-16T01:52:56.052Z,18.73
2019-01-16T01:55:51.878Z,13.33
2019-01-16T01:58:44.713Z,17.33
2019-01-16T02:01:37.507Z,12.67
2019-01-16T02:04:27.285Z,17.90
2019-01-16T02:07:20.299Z,12.00
2019-01-16T02:10:16.078Z,16.07
2019-01-16T02:13:04.619Z,9.00
2019-01-16T02:16:10.254Z,12.03
2019-01-16T02:18:59.738Z,10.60
2019-01-16T02:22:01.791Z,14.17
2019-01-16T02:24:57.794Z,16.87
2019-01-16T02:27:37.129Z,10.97
2019-01-16T02:30:25.526Z,12.57
2019-01-16T02:33:12.660Z,12.57
2019-01-16T02:36:06.421Z,12.17
2019-01-16T02:38:49.929Z,14.77
2019-01-16T02:41:42.946Z,15.73
2019-01-16T02:44:35.725Z,12.40
2019-01-16T02:47:14.534Z,16.60
2019-01-16T02:49:52.650Z,14.07
2019-01-16T02:52:42.746Z,17.30
2019-01-16T02:55:38.796Z,99.80
2019-01-16T02:58:33.786Z,73.10
2019-01-16T03:01:21.000Z,14.07
2019-01-16T03:04:06.226Z,11.57
2019-01-16T03:06:52.785Z,12.37
2019-01-16T03:09:36.411Z,11.37
2019-01-16T03:12:23.536Z,12.20
2019-01-16T03:15:05.114Z,19.77
2019-01-16T03:18:07.516Z,11.97
2019-01-16T03:20:57.559Z,16.63
2019-01-16T03:23:53.772Z,12.60
2019-01-16T03:26:36.233Z,13.47
2019-01-16T03:29:12.050Z,5.90
2019-01-16T03:31:48.695Z,9.20
2019-01-16T03:34:40.766Z,10.40
2019-01-16T03:37:21.146Z,12.80
2019-01-16T03:40:06.903Z,12.87
2019-01-16T03:42:42.543Z,8.70
2019-01-16T03:45:32.513Z,10.83
2019-01-16T03:48:34.642Z,21.07
2019-01-16T03:51:22.426Z,13.80
2019-01-16T03:54:06.490Z,19.57
2019-01-16T03:56:59.293Z,18.57
2019-01-16T03:59:46.538Z,9.10
2019-01-16T04:02:32.246Z,16.27
2019-01-16T04:05:19.487Z,8.90
2019-01-16T04:08:05.182Z,7.80
2019-01-16T04:11:07.350Z,7.13
2019-01-16T04:13:57.506Z,12.73
2019-01-16T04:16:47.591Z,8.17
2019-01-16T04:19:37.626Z,9.33
2019-01-16T04:22:30.706Z,10.23
2019-01-16T04:25:23.724Z,9.87
2019-01-16T04:28:10.954Z,13.07
2019-01-16T04:31:13.370Z,8.63
2019-01-16T04:34:15.605Z,6.60
2019-01-16T04:37:05.626Z,10.17
2019-01-16T04:39:52.867Z,12.13
2019-01-16T04:42:38.006Z,20.20
2019-01-16T04:45:27.900Z,15.63
2019-01-16T04:48:23.937Z,12.80
2019-01-16T04:51:23.003Z,10.47
2019-01-16T04:54:08.606Z,10.43
2019-01-16T04:57:08.071Z,14.03
2019-01-16T04:59:49.949Z,10.97
2019-01-16T05:02:35.830Z,6.70
2019-01-16T05:05:22.569Z,8.93
2019-01-16T05:08:08.331Z,9.63
2019-01-16T05:11:01.777Z,7.70
2019-01-16T05:13:51.570Z,10.53
2019-01-16T05:16:38.802Z,13.17
2019-01-16T05:19:26.015Z,9.73
2019-01-16T05:22:11.718Z,14.20
2019-01-16T05:24:50.511Z,7.83
2019-01-16T05:27:49.902Z,10.60
2019-01-16T05:30:35.531Z,9.33
2019-01-16T05:33:31.642Z,11.70
2019-01-16T05:36:18.854Z,10.87
2019-01-16T05:39:01.145Z,13.77
2019-01-16T05:41:51.266Z,21.93
2019-01-16T05:44:50.234Z,30.33
2019-01-16T05:47:37.437Z,14.83
2019-01-16T05:50:28.981Z,21.97
2019-01-16T05:53:18.978Z,20.40
2019-01-16T05:56:24.538Z,20.17
2019-01-16T05:59:23.625Z,15.20
2019-01-16T06:02:09.660Z,14.43
2019-01-16T06:04:55.273Z,14.93
2019-01-16T06:07:42.518Z,11.83
2019-01-16T06:10:28.962Z,11.27
2019-01-16T06:13:14.946Z,12.63
2019-01-16T06:16:00.466Z,17.73
2019-01-16T06:18:56.550Z,14.37
2019-01-16T06:21:42.113Z,19.93
2019-01-16T06:24:29.366Z,13.70
2019-01-16T06:27:19.806Z,23.60
2019-01-16T06:30:09.910Z,22.73
2019-01-16T06:33:12.075Z,19.57
2019-01-16T06:35:54.993Z,16.97
2019-01-16T06:38:57.426Z,22.53
2019-01-16T06:41:44.626Z,20.73
2019-01-16T06:44:34.359Z,17.73
2019-01-16T06:47:10.178Z,31.23
2019-01-16T06:49:47.313Z,27.97
2019-01-16T06:52:29.466Z,28.63
2019-01-16T06:55:07.069Z,28.20
2019-01-16T06:57:52.520Z,24.00
2019-01-16T07:00:31.837Z,19.87
2019-01-16T07:03:33.717Z,15.17
2019-01-16T07:06:19.703Z,18.87
2019-01-16T07:09:15.885Z,20.67
2019-01-16T07:12:02.077Z,23.73
2019-01-16T07:14:49.285Z,117.20
2019-01-16T07:17:50.017Z,270.77
2019-01-16T07:20:35.568Z,295.60
2019-01-16T07:23:13.610Z,124.10
2019-01-16T07:26:03.785Z,26.93
2019-01-16T07:28:53.746Z,17.47
2019-01-16T07:31:28.921Z,19.57
2019-01-16T07:34:14.474Z,27.87
2019-01-16T07:37:05.095Z,18.97
2019-01-16T07:39:42.681Z,28.53
2019-01-16T07:42:32.638Z,24.10
2019-01-16T07:45:22.305Z,23.03
2019-01-16T07:48:01.545Z,26.07
2019-01-16T07:50:43.178Z,29.13
2019-01-16T07:53:30.137Z,35.47
2019-01-16T07:56:17.425Z,26.27
2019-01-16T07:58:55.457Z,20.13
2019-01-16T08:01:38.102Z,22.00
2019-01-16T08:04:28.292Z,20.67
2019-01-16T08:07:15.457Z,17.50
2019-01-16T08:10:01.209Z,21.63
2019-01-16T08:12:47.021Z,19.30
2019-01-16T08:15:37.013Z,16.77
2019-01-16T08:18:26.996Z,15.60
2019-01-16T08:21:12.245Z,13.80
2019-01-16T08:23:59.377Z,14.60
2019-01-16T08:26:45.494Z,18.70
2019-01-16T08:29:33.005Z,16.13
2019-01-16T08:32:11.794Z,17.03
2019-01-16T08:35:01.261Z,18.57
2019-01-16T08:37:50.997Z,13.77
2019-01-16T08:40:44.485Z,13.73
2019-01-16T08:43:21.846Z,19.80
2019-01-16T08:46:14.173Z,12.60
2019-01-16T08:49:05.855Z,12.30
2019-01-16T08:52:08.141Z,9.20
2019-01-16T08:55:07.549Z,11.13
2019-01-16T08:57:54.845Z,11.47
2019-01-16T09:00:44.955Z,9.97
2019-01-16T09:03:30.817Z,17.17
2019-01-16T09:06:33.197Z,15.10
2019-01-16T09:09:32.350Z,15.87
2019-01-16T09:12:28.321Z,13.30
2019-01-16T09:15:24.674Z,16.43
2019-01-16T09:17:59.851Z,12.80
2019-01-16T09:20:49.637Z,12.90
2019-01-16T09:23:38.453Z,9.30
2019-01-16T09:26:22.227Z,12.30
2019-01-16T09:29:24.278Z,13.70
2019-01-16T09:32:17.413Z,10.50
2019-01-16T09:35:04.509Z,14.73
2019-01-16T09:37:41.501Z,9.10
2019-01-16T09:40:22.270Z,13.37
2019-01-16T09:43:18.277Z,8.27
2019-01-16T09:46:14.024Z,8.57
2019-01-16T09:49:06.765Z,15.10
2019-01-16T09:52:02.740Z,7.70
2019-01-16T09:54:55.786Z,7.87
2019-01-16T09:57:42.184Z,12.40
2019-01-16T10:00:31.453Z,10.50
2019-01-16T10:03:17.178Z,7.50
2019-01-16T10:06:03.025Z,8.53
2019-01-16T10:09:02.274Z,8.20
2019-01-16T10:11:55.321Z,7.07
2019-01-16T10:14:45.085Z,8.03
2019-01-16T10:17:24.859Z,8.23
2019-01-16T10:20:14.781Z,9.97
2019-01-16T10:23:04.457Z,9.80
2019-01-16T10:25:54.512Z,13.80
2019-01-16T10:28:53.496Z,4.13
2019-01-16T10:31:55.560Z,7.00
2019-01-16T10:34:36.065Z,6.63
2019-01-16T10:37:11.780Z,12.17
2019-01-16T10:39:53.833Z,5.80
2019-01-16T10:42:40.973Z,9.08
2019-01-16T10:45:33.703Z,5.43
2019-01-16T10:48:21.102Z,7.83
2019-01-16T10:51:03.032Z,18.27
2019-01-16T10:53:54.373Z,16.60
2019-01-16T10:56:47.110Z,17.93
2019-01-16T10:59:30.316Z,6.57
2019-01-16T11:02:06.613Z,9.50
2019-01-16T11:04:52.452Z,12.60
2019-01-16T11:07:48.428Z,5.67
2019-01-16T11:10:25.477Z,7.67
2019-01-16T11:13:24.599Z,8.38
2019-01-16T11:16:20.265Z,11.50
2019-01-16T11:19:19.135Z,10.08
2019-01-16T11:22:17.953Z,6.67
2019-01-16T11:25:05.109Z,14.63
2019-01-16T11:27:50.999Z,8.47
2019-01-16T11:30:56.545Z,6.27
2019-01-16T11:33:42.112Z,5.40
2019-01-16T11:36:21.330Z,8.37
2019-01-16T11:39:04.765Z,5.87
2019-01-16T11:41:51.927Z,13.00
2019-01-16T11:44:37.539Z,8.40
2019-01-16T11:47:39.803Z,13.30
2019-01-16T11:50:25.297Z,18.40
2019-01-16T11:53:30.619Z,15.83
2019-01-16T11:56:16.273Z,7.47
2019-01-16T11:59:13.987Z,10.07
2019-01-16T12:02:01.131Z,12.37
2019-01-16T12:05:03.241Z,6.50
2019-01-16T12:07:51.345Z,11.40
2019-01-16T12:10:36.800Z,5.20
2019-01-16T12:13:13.965Z,6.03
2019-01-16T12:16:01.115Z,4.53
2019-01-16T12:19:06.521Z,7.70
2019-01-16T12:22:08.973Z,9.67
2019-01-16T12:24:51.337Z,11.33
2019-01-16T12:27:38.476Z,10.33
2019-01-16T12:30:20.423Z,7.00
2019-01-16T12:32:58.934Z,13.40
2019-01-16T12:35:44.626Z,6.10
2019-01-16T12:38:19.858Z,6.10
2019-01-16T12:41:03.949Z,11.15
2019-01-16T12:43:56.887Z,5.67
2019-01-16T12:46:42.370Z,6.27
2019-01-16T12:49:35.489Z,8.70
2019-01-16T12:52:22.662Z,7.77
2019-01-16T12:55:02.297Z,6.33
2019-01-16T12:58:03.162Z,6.53
2019-01-16T13:00:50.361Z,6.57
2019-01-16T13:03:49.893Z,6.90
2019-01-16T13:06:37.117Z,6.20
2019-01-16T13:09:32.613Z,5.67
2019-01-16T13:12:19.753Z,8.63
2019-01-16T13:15:09.789Z,9.63
2019-01-16T13:17:55.556Z,9.78
2019-01-16T13:20:45.529Z,12.07
2019-01-16T13:23:32.669Z,7.93
2019-01-16T13:26:18.560Z,7.50
2019-01-16T13:29:20.881Z,6.33
2019-01-16T13:32:10.833Z,7.40
2019-01-16T13:35:09.828Z,6.07
2019-01-16T13:37:49.808Z,7.40
2019-01-16T13:40:35.793Z,12.57
2019-01-16T13:43:18.365Z,6.47
2019-01-16T13:46:01.982Z,7.43
2019-01-16T13:48:52.888Z,7.93
2019-01-16T13:51:32.138Z,11.43
2019-01-16T13:54:34.587Z,6.23
2019-01-16T13:57:16.977Z,8.70
2019-01-16T14:00:10.941Z,9.58
2019-01-16T14:03:00.949Z,6.87
2019-01-16T14:05:36.279Z,8.57
2019-01-16T14:08:12.841Z,6.67
2019-01-16T14:11:02.524Z,7.87
2019-01-16T14:13:49.652Z,8.30
2019-01-16T14:16:51.681Z,12.03
2019-01-16T14:19:44.865Z,9.10
2019-01-16T14:22:50.054Z,7.60
2019-01-16T14:25:43.227Z,9.10
2019-01-16T14:28:26.229Z,8.83
2019-01-16T14:31:28.333Z,5.20
2019-01-16T14:34:18.249Z,6.90
2019-01-16T14:37:03.878Z,11.87
2019-01-16T14:39:49.644Z,7.77
2019-01-16T14:42:35.570Z,10.07
2019-01-16T14:45:23.075Z,9.70
2019-01-16T14:48:02.686Z,12.17
2019-01-16T14:50:41.530Z,7.90
2019-01-16T14:53:37.817Z,16.73
2019-01-16T14:56:24.981Z,6.67
2019-01-16T14:59:10.993Z,9.53
2019-01-16T15:02:03.840Z,8.10
2019-01-16T15:04:49.362Z,8.83
2019-01-16T15:07:36.533Z,10.27
2019-01-16T15:10:24.220Z,9.90
2019-01-16T15:13:09.131Z,11.13
2019-01-16T15:15:53.325Z,11.77
2019-01-16T15:18:43.037Z,12.23
2019-01-16T15:21:30.187Z,11.70
2019-01-16T15:24:10.895Z,13.90
2019-01-16T15:27:03.593Z,13.77
2019-01-16T15:29:53.335Z,15.73
2019-01-16T15:32:39.066Z,13.43
2019-01-16T15:35:25.536Z,15.27
2019-01-16T15:38:27.757Z,13.37
2019-01-16T15:41:20.986Z,9.23
2019-01-16T15:44:26.317Z,9.83
2019-01-16T15:47:22.132Z,15.27
2019-01-16T15:50:06.549Z,14.43
2019-01-16T15:52:59.431Z,12.33
2019-01-16T15:55:46.574Z,7.83
2019-01-16T15:58:25.865Z,11.20
2019-01-16T16:01:13.034Z,11.00
2019-01-16T16:03:48.809Z,10.03
2019-01-16T16:06:33.257Z,17.00
2019-01-16T16:09:32.030Z,11.47
2019-01-16T16:12:19.253Z,16.37
2019-01-16T16:15:04.790Z,10.43
2019-01-16T16:17:58.000Z,9.07
2019-01-16T16:20:53.994Z,22.30
2019-01-16T16:23:38.606Z,15.07
2019-01-16T16:26:24.069Z,13.40
2019-01-16T16:29:09.803Z,18.53
2019-01-16T16:31:59.998Z,13.80
2019-01-16T16:34:49.825Z,19.60
2019-01-16T16:37:34.646Z,19.40
2019-01-16T16:40:27.430Z,23.30
2019-01-16T16:43:12.305Z,20.40
2019-01-16T16:46:05.533Z,16.37
2019-01-16T16:48:54.318Z,17.27
2019-01-16T16:51:46.022Z,16.27
2019-01-16T16:54:31.564Z,23.27
2019-01-16T16:57:13.863Z,22.17
2019-01-16T17:00:12.797Z,15.63
2019-01-16T17:02:58.347Z,26.53
2019-01-16T17:05:48.358Z,16.43
2019-01-16T17:08:33.911Z,25.73
2019-01-16T17:11:11.617Z,20.07
2019-01-16T17:14:02.837Z,23.57
2019-01-16T17:16:52.706Z,23.33
2019-01-16T17:19:43.772Z,27.27
2019-01-16T17:22:33.921Z,26.27
2019-01-16T17:25:21.050Z,25.27
2019-01-16T17:28:20.273Z,27.50
2019-01-16T17:31:19.113Z,23.93
2019-01-16T17:34:24.582Z,26.90
2019-01-16T17:37:11.673Z,28.17
2019-01-16T17:40:03.065Z,30.00
2019-01-16T17:42:59.129Z,31.55
2019-01-16T17:45:55.009Z,33.03
2019-01-16T17:48:44.807Z,28.27
2019-01-16T17:51:50.241Z,31.83
2019-01-16T17:54:40.280Z,32.47
2019-01-16T17:57:30.132Z,44.03
2019-01-16T18:00:28.895Z,63.58
2019-01-16T18:03:26.933Z,50.33
2019-01-16T18:06:14.113Z,58.48
2019-01-16T18:09:06.973Z,44.57
2019-01-16T18:11:52.629Z,44.90
2019-01-16T18:14:48.597Z,38.80
2019-01-16T18:17:33.933Z,38.47
2019-01-16T18:20:26.908Z,123.47
2019-01-16T18:23:31.801Z,107.07
2019-01-16T18:26:24.506Z,72.03
2019-01-16T18:29:15.425Z,120.60
2019-01-16T18:32:08.392Z,68.40
2019-01-16T18:34:58.109Z,99.53
2019-01-16T18:37:35.761Z,151.57
2019-01-16T18:40:14.593Z,127.33
2019-01-16T18:43:10.553Z,95.47
2019-01-16T18:46:06.519Z,92.90
2019-01-16T18:48:53.692Z,92.73
2019-01-16T18:51:39.017Z,77.80
2019-01-16T18:54:29.008Z,76.67
2019-01-16T18:57:19.021Z,75.27
2019-01-16T19:00:04.476Z,86.50
2019-01-16T19:02:50.073Z,93.03
2019-01-16T19:05:36.017Z,94.90
2019-01-16T19:08:25.969Z,83.50
2019-01-16T19:11:13.100Z,159.27
2019-01-16T19:14:02.860Z,191.73
2019-01-16T19:16:52.834Z,103.20
2019-01-16T19:19:32.690Z,88.43
2019-01-16T19:22:19.821Z,75.67
2019-01-16T19:24:56.617Z,55.93
2019-01-16T19:27:41.670Z,61.60
2019-01-16T19:30:22.301Z,59.73
2019-01-16T19:33:18.549Z,64.07
2019-01-16T19:36:04.088Z,67.63
2019-01-16T19:38:49.951Z,67.70
2019-01-16T19:41:37.852Z,69.17
2019-01-16T19:44:24.982Z,70.13
2019-01-16T19:47:05.830Z,58.40
2019-01-16T19:49:52.957Z,57.40
2019-01-16T19:52:34.737Z,53.93
2019-01-16T19:55:20.515Z,57.27
2019-01-16T19:58:19.680Z,52.17
2019-01-16T20:01:06.798Z,64.70
2019-01-16T20:04:03.040Z,61.20
2019-01-16T20:06:55.905Z,64.37
2019-01-16T20:09:42.913Z,75.30
2019-01-16T20:12:28.625Z,56.90
2019-01-16T20:18:01.762Z,61.33
2019-01-16T20:20:54.931Z,85.63
2019-01-16T20:23:38.689Z,74.47
2019-01-16T20:26:43.680Z,81.73
2019-01-16T20:29:39.641Z,80.10
2019-01-16T20:32:26.781Z,84.60
2019-01-16T20:35:10.905Z,86.63
2019-01-16T20:37:54.865Z,80.30
2019-01-16T20:40:47.648Z,75.80
2019-01-16T20:43:49.745Z,76.20
2019-01-16T20:46:35.857Z,63.90
2019-01-16T20:49:23.041Z,55.17
2019-01-16T20:52:18.710Z,57.20
2019-01-16T20:55:00.789Z,61.07
2019-01-16T20:57:42.425Z,59.10
2019-01-16T21:00:30.951Z,62.63
2019-01-16T21:03:27.078Z,62.33
2019-01-16T21:06:19.812Z,64.83
2019-01-16T21:09:05.353Z,75.47
2019-01-16T21:12:01.694Z,73.93
2019-01-16T21:14:42.870Z,73.93
2019-01-16T21:17:31.174Z,71.83
2019-01-16T21:20:12.993Z,64.00
2019-01-16T21:23:05.508Z,55.63
2019-01-16T21:25:55.449Z,54.03
2019-01-16T21:28:42.717Z,62.63
2019-01-16T21:31:29.863Z,67.33
2019-01-16T21:34:17.298Z,72.53
2019-01-16T21:37:04.567Z,62.00
2019-01-16T21:39:57.552Z,57.90
2019-01-16T21:42:54.185Z,71.47
2019-01-16T21:45:56.756Z,64.65
2019-01-16T21:48:47.059Z,53.10
2019-01-16T21:51:44.204Z,53.13
2019-01-16T21:54:31.438Z,70.77
2019-01-16T21:57:27.713Z,53.43
2019-01-16T22:00:20.609Z,44.17
2019-01-16T22:03:17.105Z,53.73
2019-01-16T22:06:10.592Z,43.27
2019-01-16T22:08:56.597Z,42.77
2019-01-16T22:11:59.031Z,37.07
2019-01-16T22:14:38.629Z,32.10
2019-01-16T22:17:36.971Z,34.73
2019-01-16T22:20:23.197Z,37.57
2019-01-16T22:23:18.487Z,33.73
2019-01-16T22:26:11.680Z,35.93
2019-01-16T22:28:57.784Z,32.47
2019-01-16T22:31:53.961Z,35.77
2019-01-16T22:34:40.925Z,37.63
2019-01-16T22:37:17.768Z,46.70
2019-01-16T22:40:03.269Z,52.20
2019-01-16T22:42:50.432Z,46.20
2019-01-16T22:45:52.210Z,40.83
2019-01-16T22:48:42.605Z,38.30
2019-01-16T22:51:38.433Z,35.87
2019-01-16T22:54:40.269Z,36.00
2019-01-16T22:57:27.397Z,34.30
2019-01-16T23:03:10.562Z,33.73
2019-01-16T23:05:56.496Z,48.83
2019-01-16T23:08:31.425Z,40.47
2019-01-16T23:11:16.653Z,54.03
2019-01-16T23:14:02.177Z,37.60
2019-01-16T23:16:43.891Z,34.70
2019-01-16T23:19:23.647Z,38.70
2019-01-16T23:22:09.693Z,36.83
2019-01-16T23:24:56.689Z,51.33
2019-01-16T23:27:43.849Z,40.23
2019-01-16T23:30:32.367Z,32.87
2019-01-16T23:33:20.354Z,36.43
2019-01-16T23:36:07.485Z,39.63
2019-01-16T23:39:00.285Z,34.77
2019-01-16T23:41:38.845Z,34.30
2019-01-16T23:44:26.292Z,30.77
2019-01-16T23:47:10.680Z,29.00
2019-01-16T23:49:57.829Z,29.43
2019-01-16T23:53:02.893Z,31.23
2019-01-16T23:55:52.602Z,29.77
2019-01-16T23:58:45.570Z,28.73
